createdAt,value
2022-08-18T00:04:03.250Z,20.40
2022-08-18T00:10:46.258Z,20.50
2022-08-18T00:17:28.698Z,20.40
2022-08-18T00:24:11.352Z,20.20
2022-08-18T00:30:54.337Z,20.10
2022-08-18T00:37:37.837Z,20.20
2022-08-18T00:44:20.220Z,20.20
2022-08-18T00:51:08.040Z,20.50
2022-08-18T00:57:54.215Z,20.40
2022-08-18T01:04:50.682Z,20.40
2022-08-18T01:11:33.920Z,20.50
2022-08-18T01:18:34.863Z,20.60
2022-08-18T01:25:40.370Z,20.60
2022-08-18T01:32:23.465Z,20.50
2022-08-18T01:39:08.467Z,20.50
2022-08-18T01:45:51.054Z,20.70
2022-08-18T01:52:35.310Z,20.70
2022-08-18T01:59:17.876Z,20.70
2022-08-18T02:06:02.566Z,20.70
2022-08-18T02:12:44.977Z,20.50
2022-08-18T02:19:27.615Z,20.50
2022-08-18T02:26:13.755Z,20.50
2022-08-18T02:32:58.992Z,20.40
2022-08-18T02:39:41.699Z,20.40
2022-08-18T02:46:25.015Z,20.40
2022-08-18T02:53:24.844Z,20.30
2022-08-18T03:00:10.295Z,20.40
2022-08-18T03:06:58.413Z,20.40
2022-08-18T03:13:41.539Z,20.50
2022-08-18T03:20:30.924Z,20.50
2022-08-18T03:27:13.722Z,20.40
2022-08-18T03:33:59.648Z,20.20
2022-08-18T03:40:43.191Z,20.30
2022-08-18T03:47:27.291Z,20.40
2022-08-18T03:54:13.256Z,20.40
2022-08-18T04:00:56.034Z,20.40
2022-08-18T04:07:38.375Z,20.40
2022-08-18T04:14:30.916Z,20.40
2022-08-18T04:21:16.169Z,20.20
2022-08-18T04:28:01.087Z,20.20
2022-08-18T04:34:43.502Z,20.10
2022-08-18T04:41:27.714Z,20.10
2022-08-18T04:48:10.454Z,20.20
2022-08-18T04:54:55.911Z,20.30
2022-08-18T05:01:41.354Z,20.40
2022-08-18T05:08:25.060Z,20.60
2022-08-18T05:15:08.721Z,20.70
2022-08-18T05:21:52.177Z,21.00
2022-08-18T05:28:36.955Z,21.30
2022-08-18T05:35:28.971Z,21.80
2022-08-18T05:42:21.261Z,22.30
2022-08-18T05:49:05.170Z,23.00
2022-08-18T05:56:18.510Z,23.60
2022-08-18T06:03:14.785Z,24.00
2022-08-18T06:09:57.617Z,23.90
2022-08-18T06:16:49.028Z,24.60
2022-08-18T06:24:00.799Z,26.10
2022-08-18T06:30:58.315Z,26.70
2022-08-18T06:38:34.513Z,26.10
2022-08-18T06:45:18.870Z,26.80
2022-08-18T06:52:21.954Z,26.80
2022-08-18T06:59:21.549Z,26.40
2022-08-18T07:06:21.450Z,26.20
2022-08-18T07:13:16.924Z,25.90
2022-08-18T07:20:17.275Z,25.60
2022-08-18T07:27:03.416Z,25.40
2022-08-18T07:34:20.709Z,25.70
2022-08-18T07:41:09.011Z,25.60
2022-08-18T07:55:28.263Z,24.60
2022-08-18T08:02:54.754Z,24.10
2022-08-18T08:09:58.895Z,23.90
2022-08-18T08:17:18.505Z,23.80
2022-08-18T08:24:27.263Z,23.70
2022-08-18T08:31:43.292Z,23.60
2022-08-18T08:38:42.802Z,23.30
2022-08-18T08:45:59.268Z,23.00
2022-08-18T08:52:51.016Z,23.30
2022-08-18T08:59:34.839Z,23.40
2022-08-18T09:06:43.247Z,24.00
2022-08-18T09:14:03.497Z,24.50
2022-08-18T09:20:51.492Z,25.50
2022-08-18T09:28:09.278Z,26.70
2022-08-18T09:35:08.460Z,27.40
2022-08-18T09:42:30.084Z,26.20
2022-08-18T09:49:27.842Z,27.50
2022-08-18T09:56:10.226Z,28.20
2022-08-18T10:03:04.261Z,29.20
2022-08-18T10:10:59.961Z,30.40
2022-08-18T10:17:44.550Z,29.70
2022-08-18T10:24:36.942Z,31.20
2022-08-18T10:31:24.099Z,33.00
2022-08-18T10:38:18.907Z,31.70
2022-08-18T10:45:22.091Z,32.10
2022-08-18T10:52:15.845Z,30.30
2022-08-18T10:59:28.731Z,29.70
2022-08-18T11:06:21.207Z,29.50
2022-08-18T11:13:32.624Z,29.00
2022-08-18T11:20:18.027Z,28.60
2022-08-18T11:27:15.196Z,28.40
2022-08-18T11:33:57.969Z,28.50
2022-08-18T11:48:14.986Z,28.20
2022-08-18T12:02:11.191Z,28.50
2022-08-18T12:09:06.222Z,28.30
2022-08-18T12:16:13.083Z,27.90
2022-08-18T12:22:57.011Z,28.40
2022-08-18T12:29:43.565Z,28.30
2022-08-18T12:36:27.769Z,28.20
2022-08-18T12:43:12.016Z,27.80
2022-08-18T12:49:55.427Z,27.80
2022-08-18T12:56:37.968Z,27.60
2022-08-18T13:03:20.539Z,27.90
2022-08-18T13:10:03.822Z,28.50
2022-08-18T13:16:54.165Z,28.30
2022-08-18T13:23:37.574Z,28.30
2022-08-18T13:30:31.120Z,28.30
2022-08-18T13:37:15.068Z,28.60
2022-08-18T13:43:58.136Z,28.90
2022-08-18T13:50:42.067Z,28.80
2022-08-18T13:57:27.764Z,29.00
2022-08-18T14:04:12.378Z,29.50
2022-08-18T14:10:59.475Z,29.70
2022-08-18T14:17:42.368Z,29.50
2022-08-18T14:24:43.409Z,29.70
2022-08-18T14:31:34.167Z,30.20
2022-08-18T14:38:17.337Z,29.70
2022-08-18T14:45:03.673Z,29.30
2022-08-18T14:52:01.441Z,29.40
2022-08-18T14:58:43.785Z,29.50
2022-08-18T15:05:31.703Z,29.40
2022-08-18T15:12:17.229Z,29.60
2022-08-18T15:19:00.349Z,29.60
2022-08-18T15:25:46.030Z,29.40
2022-08-18T15:32:28.440Z,29.20
2022-08-18T15:39:11.190Z,28.70
2022-08-18T15:45:57.858Z,28.40
2022-08-18T15:52:58.867Z,28.50
2022-08-18T15:59:41.350Z,28.50
2022-08-18T16:06:27.822Z,28.60
2022-08-18T16:13:15.363Z,28.40
2022-08-18T16:19:58.030Z,28.30
2022-08-18T16:26:40.416Z,28.30
2022-08-18T16:33:23.295Z,28.20
2022-08-18T16:40:08.354Z,28.10
2022-08-18T16:46:51.681Z,27.80
2022-08-18T16:53:40.059Z,27.60
2022-08-18T17:00:43.025Z,27.50
2022-08-18T17:07:25.667Z,27.30
2022-08-18T17:14:08.784Z,27.10
2022-08-18T17:20:52.319Z,27.00
2022-08-18T17:27:38.558Z,26.70
2022-08-18T17:34:27.534Z,26.40
2022-08-18T17:41:12.291Z,26.20
2022-08-18T17:48:14.043Z,26.20
2022-08-18T17:55:07.502Z,26.00
2022-08-18T18:02:22.247Z,25.80
2022-08-18T18:09:30.271Z,25.60
2022-08-18T18:16:27.151Z,25.40
2022-08-18T18:23:21.707Z,25.30
2022-08-18T18:30:19.307Z,25.20
2022-08-18T18:37:33.005Z,25.10
2022-08-18T18:44:16.228Z,25.00
2022-08-18T18:51:10.395Z,24.90
2022-08-18T18:58:16.781Z,24.90
2022-08-18T19:05:09.031Z,24.80
2022-08-18T19:12:03.605Z,24.70
2022-08-18T19:18:57.656Z,24.70
2022-08-18T19:25:56.715Z,24.60
2022-08-18T19:32:44.062Z,24.50
2022-08-18T19:39:36.545Z,24.40
2022-08-18T19:46:34.677Z,24.40
2022-08-18T19:53:31.873Z,24.40
2022-08-18T20:09:02.990Z,24.30
2022-08-18T20:16:09.121Z,24.30
2022-08-18T20:22:57.003Z,24.40
2022-08-18T20:29:46.074Z,24.30
2022-08-18T20:36:36.612Z,24.10
2022-08-18T20:43:28.909Z,24.10
2022-08-18T20:50:42.161Z,23.90
2022-08-18T20:57:25.244Z,23.90
2022-08-18T21:04:08.095Z,23.80
2022-08-18T21:11:07.550Z,23.70
2022-08-18T21:18:20.413Z,23.70
2022-08-18T21:25:03.159Z,23.60
2022-08-18T21:31:46.154Z,23.60
2022-08-18T21:38:32.470Z,23.60
2022-08-18T21:45:22.491Z,23.40
2022-08-18T21:52:04.987Z,23.40
2022-08-18T21:58:47.782Z,23.40
2022-08-18T22:05:59.022Z,23.40
2022-08-18T22:12:54.876Z,23.30
2022-08-18T22:19:37.309Z,23.30
2022-08-18T22:26:27.557Z,23.20
2022-08-18T22:33:09.925Z,23.00
2022-08-18T22:40:04.218Z,22.90
2022-08-18T22:46:46.776Z,22.80
2022-08-18T22:53:29.535Z,22.70
2022-08-18T23:00:17.062Z,22.70
2022-08-18T23:07:00.569Z,22.80
2022-08-18T23:13:42.974Z,22.70
2022-08-18T23:20:26.649Z,22.70
2022-08-18T23:27:09.361Z,22.80
2022-08-18T23:33:51.785Z,22.70
2022-08-18T23:40:37.815Z,22.70
2022-08-18T23:47:20.699Z,22.70
2022-08-18T23:54:10.097Z,22.70
